createdAt,value
2018-08-24T04:05:08.630Z,99.90
2018-08-24T04:07:49.317Z,99.90
2018-08-24T04:10:22.633Z,99.90
2018-08-24T04:25:05.611Z,99.90
2018-08-24T04:28:05.021Z,99.90
2018-08-24T04:36:50.670Z,99.90
2018-08-24T04:39:24.160Z,99.90
2018-08-24T04:42:25.363Z,99.90
2018-08-24T04:44:59.221Z,99.90
2018-08-24T04:47:31.480Z,99.90
2018-08-24T04:50:09.181Z,99.90
2018-08-24T04:59:15.649Z,99.90
2018-08-24T05:11:12.873Z,99.90
2018-08-24T05:20:44.825Z,99.90
2018-08-24T05:23:25.749Z,99.90
2018-08-24T05:29:17.345Z,99.90
2018-08-24T05:44:46.668Z,99.90
2018-08-24T05:50:54.125Z,99.90
2018-08-24T06:47:12.152Z,99.90
2018-08-24T06:57:18.653Z,99.90
2018-08-24T07:00:01.638Z,93.40
2018-08-24T07:04:33.949Z,94.00
2018-08-24T07:18:16.658Z,65.80
2018-08-24T07:43:07.717Z,46.20
2018-08-24T07:45:38.753Z,46.30
2018-08-24T07:48:15.266Z,42.50
2018-08-24T07:50:49.178Z,45.40
2018-08-24T07:57:16.496Z,45.60
2018-08-24T07:59:50.393Z,40.70
2018-08-24T08:02:27.192Z,42.30
2018-08-24T08:04:59.535Z,42.70
2018-08-24T08:07:31.528Z,43.80
2018-08-24T08:10:02.500Z,42.50
2018-08-24T08:12:33.383Z,41.80
2018-08-24T08:18:08.847Z,41.80
2018-08-24T08:21:02.531Z,39.20
2018-08-24T08:30:26.728Z,37.90
2018-08-24T08:33:02.980Z,36.50
2018-08-24T08:35:33.966Z,37.80
2018-08-24T08:38:04.947Z,38.60
2018-08-24T08:40:38.776Z,36.30
2018-08-24T08:46:37.026Z,37.50
2018-08-24T08:59:01.609Z,35.70
2018-08-24T11:23:34.008Z,45.70
2018-08-24T11:26:05.164Z,47.30
2018-08-24T11:28:35.801Z,51.90
2018-08-24T11:31:07.964Z,52.60
2018-08-24T11:33:41.552Z,58.20
2018-08-24T11:39:52.639Z,95.60
2018-08-24T11:54:42.244Z,91.30
2018-08-24T12:12:17.181Z,99.90
2018-08-24T12:15:16.919Z,99.90
2018-08-24T12:21:19.778Z,99.90
2018-08-24T12:23:50.292Z,99.90
2018-08-24T12:26:41.520Z,99.90
2018-08-24T12:29:17.173Z,99.90
2018-08-24T12:31:54.215Z,99.90
2018-08-24T12:34:25.063Z,99.90
2018-08-24T12:37:03.301Z,99.90
2018-08-24T12:39:35.825Z,99.90
2018-08-24T12:42:06.730Z,99.90
2018-08-24T12:44:41.625Z,99.90
2018-08-24T12:47:13.863Z,99.90
2018-08-24T12:52:47.459Z,92.20
2018-08-24T12:58:51.276Z,71.00
2018-08-24T13:06:12.736Z,80.80
2018-08-24T13:09:29.206Z,50.70
2018-08-24T13:12:12.113Z,50.70
2018-08-24T13:18:40.666Z,51.10
2018-08-24T13:21:42.144Z,55.80
2018-08-24T13:25:17.743Z,55.20
2018-08-24T14:24:28.067Z,99.90
2018-08-24T14:34:10.959Z,99.90
2018-08-24T14:36:50.136Z,99.90
2018-08-24T14:39:35.040Z,99.90
2018-08-24T14:42:13.276Z,99.90
2018-08-24T14:51:42.895Z,99.90
2018-08-24T14:54:19.592Z,99.90
2018-08-24T15:05:52.849Z,99.90
2018-08-24T15:08:29.976Z,99.90
2018-08-24T15:12:18.437Z,99.90
2018-08-24T15:14:58.795Z,99.90
2018-08-24T15:21:32.782Z,99.90
2018-08-24T15:27:07.744Z,99.90
2018-08-24T15:29:38.661Z,99.90
2018-08-24T15:32:12.534Z,99.90
2018-08-24T15:35:34.789Z,99.90
2018-08-24T15:44:13.294Z,99.90
2018-08-24T15:46:45.424Z,99.90
2018-08-24T15:49:24.449Z,99.90
2018-08-24T15:51:57.504Z,99.90
2018-08-24T15:54:38.239Z,99.90
2018-08-24T15:57:08.732Z,99.90
2018-08-24T15:59:39.760Z,99.90
2018-08-24T16:02:10.543Z,99.90
2018-08-24T16:04:43.253Z,99.90
2018-08-24T16:07:14.172Z,99.90
2018-08-24T16:09:45.014Z,99.90
2018-08-24T16:12:18.340Z,99.90
2018-08-24T16:14:49.487Z,99.90
2018-08-24T16:17:20.709Z,99.90
2018-08-24T16:23:20.459Z,99.90
2018-08-24T16:26:02.903Z,99.90
2018-08-24T16:31:48.189Z,99.90
2018-08-24T16:34:19.039Z,99.90
2018-08-24T16:36:49.941Z,99.90
2018-08-24T16:39:19.972Z,99.90
2018-08-24T16:41:50.863Z,99.90
2018-08-24T16:44:20.707Z,99.90
2018-08-24T16:46:50.536Z,99.90
2018-08-24T16:49:20.641Z,99.90
2018-08-24T16:52:15.215Z,99.90
2018-08-24T16:54:45.936Z,99.90
2018-08-24T17:07:43.595Z,99.90
2018-08-24T17:13:50.176Z,99.90
2018-08-24T17:16:19.900Z,99.90
2018-08-24T17:18:50.008Z,99.90
2018-08-24T17:21:19.226Z,99.90
2018-08-24T17:23:48.774Z,99.90
2018-08-24T17:26:17.928Z,99.90
2018-08-24T17:28:47.382Z,99.90
2018-08-24T17:31:17.254Z,99.90
2018-08-24T17:33:46.700Z,99.90
2018-08-24T17:36:16.555Z,99.90
2018-08-24T17:38:46.371Z,99.90
2018-08-24T17:41:15.440Z,99.90
2018-08-24T17:43:44.436Z,99.90
2018-08-24T17:46:14.187Z,99.90
2018-08-24T17:48:44.583Z,99.90
2018-08-24T17:51:14.045Z,99.90
2018-08-24T17:53:43.644Z,99.90
2018-08-24T17:56:13.985Z,99.90
2018-08-24T17:58:45.249Z,99.90
2018-08-24T18:01:15.013Z,99.90
2018-08-24T18:03:43.715Z,99.90
2018-08-24T18:06:13.480Z,99.90
2018-08-24T18:08:43.319Z,99.90
2018-08-24T18:11:13.419Z,99.90
2018-08-24T18:13:42.984Z,99.90
2018-08-24T18:16:13.108Z,99.90
2018-08-24T18:18:42.780Z,99.90
2018-08-24T18:21:12.748Z,99.90
2018-08-24T18:23:43.146Z,99.90
2018-08-24T18:26:13.484Z,99.90
2018-08-24T18:28:42.553Z,99.90
2018-08-24T18:31:12.799Z,99.90
2018-08-24T18:33:42.935Z,99.90
2018-08-24T18:36:13.519Z,99.90
2018-08-24T18:38:44.385Z,99.90
2018-08-24T18:41:14.352Z,99.90
2018-08-24T18:43:45.236Z,99.90
2018-08-24T18:46:14.991Z,99.90
2018-08-24T18:48:44.995Z,99.90
2018-08-24T18:51:14.796Z,99.90
2018-08-24T18:53:44.628Z,99.90
2018-08-24T18:56:15.079Z,99.90
2018-08-24T18:58:45.343Z,99.90
2018-08-24T19:01:15.946Z,99.90
2018-08-24T19:03:45.975Z,99.90
2018-08-24T19:06:16.587Z,99.90
2018-08-24T19:08:47.793Z,99.90
2018-08-24T19:11:22.386Z,99.90
2018-08-24T19:13:52.536Z,99.90
2018-08-24T19:16:23.369Z,99.90
2018-08-24T19:18:58.285Z,99.90
2018-08-24T19:21:32.888Z,99.90
2018-08-24T19:24:03.864Z,99.90
2018-08-24T19:26:34.524Z,99.90
2018-08-24T19:29:09.600Z,99.90
2018-08-24T19:31:39.457Z,99.90
2018-08-24T19:34:10.391Z,99.90
2018-08-24T19:36:41.130Z,99.90
2018-08-24T19:39:14.289Z,99.90
2018-08-24T19:41:49.735Z,99.90
2018-08-24T19:44:18.831Z,99.90
2018-08-24T19:46:48.690Z,99.90
2018-08-24T19:49:20.624Z,99.90
2018-08-24T19:51:50.377Z,99.90
2018-08-24T19:54:20.021Z,99.90
2018-08-24T19:56:49.959Z,99.90
2018-08-24T19:59:19.836Z,99.90
2018-08-24T20:01:49.649Z,99.90
2018-08-24T20:04:19.460Z,99.90
2018-08-24T20:06:53.976Z,99.90
2018-08-24T20:09:29.212Z,99.90
2018-08-24T20:11:59.025Z,99.90
2018-08-24T20:14:33.624Z,99.90
2018-08-24T20:17:08.712Z,99.90
2018-08-24T20:19:39.512Z,99.90
2018-08-24T20:22:10.543Z,99.90
2018-08-24T20:24:40.399Z,99.90
2018-08-24T20:27:10.236Z,99.90
2018-08-24T20:29:40.134Z,99.90
2018-08-24T20:32:09.952Z,99.90
2018-08-24T20:34:39.767Z,99.90
2018-08-24T20:37:09.611Z,99.90
2018-08-24T20:39:39.421Z,99.90
2018-08-24T20:42:09.250Z,99.90
2018-08-24T20:44:39.076Z,99.90
2018-08-24T20:47:08.958Z,99.90
2018-08-24T20:49:38.724Z,99.90
2018-08-24T20:52:08.576Z,99.90
2018-08-24T20:54:38.336Z,99.90
2018-08-24T20:57:08.227Z,99.90
2018-08-24T20:59:38.105Z,99.90
2018-08-24T21:02:08.919Z,99.90
2018-08-24T21:04:38.734Z,99.90
2018-08-24T21:07:08.579Z,99.90
2018-08-24T21:09:39.160Z,99.90
2018-08-24T21:12:09.787Z,99.90
2018-08-24T21:14:40.793Z,99.90
2018-08-24T21:17:10.940Z,99.90
2018-08-24T21:19:40.762Z,99.90
2018-08-24T21:22:11.416Z,99.90
2018-08-24T21:24:42.456Z,99.90
2018-08-24T21:27:12.223Z,99.90
2018-08-24T21:29:43.235Z,99.90
2018-08-24T21:32:12.947Z,99.90
2018-08-24T21:34:43.520Z,99.90
2018-08-24T21:37:14.407Z,99.90
2018-08-24T21:39:45.372Z,99.90
2018-08-24T21:42:16.273Z,99.90
2018-08-24T21:44:46.184Z,99.90
2018-08-24T21:47:15.991Z,99.90
2018-08-24T21:49:45.859Z,99.90
2018-08-24T21:52:15.652Z,99.90
2018-08-24T21:54:45.468Z,99.90
2018-08-24T21:57:15.305Z,99.90
2018-08-24T21:59:45.871Z,99.90
